createdAt,value
2023-11-15T00:00:23.887Z,3.05
2023-11-15T00:00:55.388Z,2.75
2023-11-15T00:01:27.934Z,3.47
2023-11-15T00:01:59.435Z,3.35
2023-11-15T00:02:31.988Z,2.60
2023-11-15T00:03:04.528Z,3.07
2023-11-15T00:03:36.202Z,2.75
2023-11-15T00:04:09.913Z,3.05
2023-11-15T00:04:41.445Z,3.22
2023-11-15T00:05:12.920Z,3.75
2023-11-15T00:05:44.701Z,2.75
2023-11-15T00:06:16.319Z,2.67
2023-11-15T00:06:48.645Z,3.88
2023-11-15T00:07:20.302Z,3.72
2023-11-15T00:07:51.739Z,3.97
2023-11-15T00:08:23.266Z,3.60
2023-11-15T00:08:54.829Z,3.85
2023-11-15T00:09:26.320Z,3.00
2023-11-15T00:09:58.026Z,3.55
2023-11-15T00:10:29.514Z,3.33
2023-11-15T00:11:01.069Z,2.70
2023-11-15T00:11:32.656Z,3.45
2023-11-15T00:12:04.643Z,3.95
2023-11-15T00:12:36.212Z,3.25
2023-11-15T00:13:09.441Z,3.35
2023-11-15T00:13:40.944Z,2.97
2023-11-15T00:14:12.474Z,3.85
2023-11-15T00:14:44.774Z,3.58
2023-11-15T00:15:16.596Z,4.82
2023-11-15T00:15:48.137Z,3.70
2023-11-15T00:16:19.833Z,3.38
2023-11-15T00:16:51.394Z,3.72
2023-11-15T00:17:22.910Z,3.58
2023-11-15T00:18:14.768Z,2.97
2023-11-15T00:18:46.574Z,2.92
2023-11-15T00:19:18.368Z,2.97
2023-11-15T00:19:50.732Z,2.83
2023-11-15T00:20:22.624Z,3.13
2023-11-15T00:20:54.239Z,4.18
2023-11-15T00:21:25.920Z,4.00
2023-11-15T00:21:59.031Z,3.17
2023-11-15T00:22:32.686Z,4.00
2023-11-15T00:23:04.355Z,3.45
2023-11-15T00:23:36.368Z,3.50
2023-11-15T00:24:08.376Z,3.42
2023-11-15T00:24:40.075Z,3.53
2023-11-15T00:25:11.606Z,4.22
2023-11-15T00:25:43.148Z,3.70
2023-11-15T00:26:15.227Z,3.42
2023-11-15T00:26:46.690Z,2.63
2023-11-15T00:27:18.484Z,3.13
2023-11-15T00:27:50.237Z,2.13
2023-11-15T00:28:21.749Z,2.38
2023-11-15T00:28:53.949Z,2.50
2023-11-15T00:29:25.627Z,2.25
2023-11-15T00:29:57.075Z,2.20
2023-11-15T00:30:28.483Z,1.98
2023-11-15T00:30:59.964Z,1.95
2023-11-15T00:31:33.030Z,2.13
2023-11-15T00:32:05.960Z,1.98
2023-11-15T00:32:37.517Z,1.85
2023-11-15T00:33:09.280Z,1.88
2023-11-15T00:33:41.050Z,2.05
2023-11-15T00:34:12.691Z,2.00
2023-11-15T00:34:44.181Z,1.20
2023-11-15T00:35:15.991Z,2.33
2023-11-15T00:35:47.602Z,0.95
2023-11-15T00:36:22.024Z,1.55
2023-11-15T00:36:56.022Z,0.65
2023-11-15T00:37:28.704Z,1.55
2023-11-15T00:38:00.140Z,1.00
2023-11-15T00:38:31.681Z,0.90
2023-11-15T00:39:05.866Z,0.98
2023-11-15T00:39:37.333Z,1.45
2023-11-15T00:40:11.923Z,1.30
2023-11-15T00:40:43.489Z,0.80
2023-11-15T00:41:14.936Z,0.93
2023-11-15T00:41:46.821Z,1.20
2023-11-15T00:42:18.308Z,1.48
2023-11-15T00:42:50.355Z,1.65
2023-11-15T00:43:21.920Z,1.13
2023-11-15T00:43:53.376Z,1.08
2023-11-15T00:44:24.884Z,1.15
2023-11-15T00:44:56.491Z,1.25
2023-11-15T00:45:28.893Z,1.20
2023-11-15T00:46:00.445Z,1.30
2023-11-15T00:46:33.576Z,1.13
2023-11-15T00:47:06.376Z,1.33
2023-11-15T00:47:37.940Z,1.17
2023-11-15T00:48:09.468Z,1.10
2023-11-15T00:48:43.942Z,1.23
2023-11-15T00:49:15.419Z,1.00
2023-11-15T00:49:46.938Z,1.52
2023-11-15T00:50:19.296Z,1.17
2023-11-15T00:50:50.843Z,1.10
2023-11-15T00:51:22.982Z,1.00
2023-11-15T00:51:55.508Z,1.25
2023-11-15T00:52:26.942Z,1.77
2023-11-15T00:52:59.582Z,1.45
2023-11-15T00:53:31.038Z,1.10
2023-11-15T00:54:02.513Z,1.00
2023-11-15T00:54:34.104Z,0.75
2023-11-15T00:55:06.946Z,1.13
2023-11-15T00:55:38.428Z,1.38
2023-11-15T00:56:09.860Z,1.00
2023-11-15T00:56:41.565Z,2.20
2023-11-15T00:57:13.694Z,0.90
2023-11-15T00:57:46.200Z,1.20
2023-11-15T00:58:18.873Z,1.17
2023-11-15T00:58:50.415Z,0.82
2023-11-15T00:59:45.481Z,0.80
2023-11-15T01:00:25.311Z,1.23
2023-11-15T01:00:57.774Z,1.33
2023-11-15T01:01:29.474Z,1.90
2023-11-15T01:02:01.025Z,1.80
2023-11-15T01:02:37.281Z,2.20
2023-11-15T01:03:09.251Z,1.92
2023-11-15T01:03:59.932Z,1.65
2023-11-15T01:04:31.952Z,1.48
2023-11-15T01:05:04.281Z,1.77
2023-11-15T01:05:35.834Z,1.13
2023-11-15T01:06:07.806Z,1.67
2023-11-15T01:06:39.260Z,1.73
2023-11-15T01:07:10.693Z,1.98
2023-11-15T01:07:42.146Z,1.38
2023-11-15T01:08:13.561Z,1.60
2023-11-15T01:08:45.132Z,1.90
2023-11-15T01:09:17.191Z,1.70
2023-11-15T01:09:49.049Z,1.60
2023-11-15T01:10:20.691Z,1.05
2023-11-15T01:10:58.125Z,1.27
2023-11-15T01:11:29.723Z,1.67
2023-11-15T01:12:01.369Z,2.05
2023-11-15T01:12:32.908Z,1.60
2023-11-15T01:13:04.544Z,1.10
2023-11-15T01:13:36.184Z,1.57
2023-11-15T01:14:07.630Z,1.17
2023-11-15T01:14:39.185Z,1.30
2023-11-15T01:15:11.648Z,2.00
2023-11-15T01:15:43.140Z,1.48
2023-11-15T01:16:15.692Z,1.17
2023-11-15T01:16:47.284Z,1.20
2023-11-15T01:17:18.777Z,2.08
2023-11-15T01:17:51.311Z,1.63
2023-11-15T01:18:23.072Z,1.38
2023-11-15T01:18:54.692Z,1.27
2023-11-15T01:19:26.361Z,1.52
2023-11-15T01:19:57.909Z,1.70
2023-11-15T01:20:29.383Z,1.55
2023-11-15T01:21:02.208Z,2.05
2023-11-15T01:21:33.708Z,1.73
2023-11-15T01:22:05.242Z,1.90
2023-11-15T01:22:36.757Z,1.73
2023-11-15T01:23:08.282Z,1.88
2023-11-15T01:23:40.101Z,1.85
2023-11-15T01:24:11.711Z,1.57
2023-11-15T01:24:43.226Z,1.73
2023-11-15T01:25:15.427Z,1.80
2023-11-15T01:25:46.938Z,1.42
2023-11-15T01:26:19.593Z,1.60
2023-11-15T01:26:52.397Z,1.95
2023-11-15T01:27:23.849Z,1.75
2023-11-15T01:27:55.307Z,2.33
2023-11-15T01:28:26.796Z,1.60
2023-11-15T01:28:58.965Z,1.60
2023-11-15T01:29:30.513Z,1.50
2023-11-15T01:30:20.753Z,1.35
2023-11-15T01:30:52.179Z,1.70
2023-11-15T01:31:23.699Z,1.83
2023-11-15T01:31:56.971Z,2.10
2023-11-15T01:32:28.908Z,1.40
2023-11-15T01:33:00.573Z,1.48
2023-11-15T01:33:32.750Z,1.92
2023-11-15T01:34:04.326Z,2.22
2023-11-15T01:34:35.844Z,2.10
2023-11-15T01:35:09.169Z,2.00
2023-11-15T01:35:40.647Z,1.35
2023-11-15T01:36:12.150Z,1.80
2023-11-15T01:36:46.093Z,2.17
2023-11-15T01:37:18.292Z,2.35
2023-11-15T01:37:54.222Z,1.58
2023-11-15T01:38:25.806Z,1.90
2023-11-15T01:38:57.398Z,2.05
2023-11-15T01:39:29.529Z,1.98
2023-11-15T01:40:07.639Z,1.95
2023-11-15T01:40:39.408Z,1.83
2023-11-15T01:41:11.467Z,1.58
2023-11-15T01:41:49.263Z,2.33
2023-11-15T01:42:39.554Z,1.85
2023-11-15T01:44:00.645Z,1.38
2023-11-15T01:44:32.605Z,1.90
2023-11-15T01:45:04.888Z,1.90
2023-11-15T01:45:37.274Z,1.70
2023-11-15T01:46:58.184Z,2.43
2023-11-15T01:47:30.753Z,1.17
2023-11-15T01:48:02.630Z,2.08
2023-11-15T01:48:34.895Z,1.75
2023-11-15T01:49:07.032Z,2.33
2023-11-15T01:49:38.523Z,1.40
2023-11-15T01:50:29.121Z,1.77
2023-11-15T01:51:02.828Z,2.55
2023-11-15T01:51:34.444Z,2.17
2023-11-15T01:52:06.082Z,1.70
2023-11-15T01:53:03.527Z,2.10
2023-11-15T01:53:35.750Z,1.63
2023-11-15T01:54:07.704Z,1.40
2023-11-15T01:54:39.247Z,1.85
2023-11-15T01:55:14.022Z,1.38
2023-11-15T01:55:46.819Z,1.58
2023-11-15T01:56:18.349Z,1.23
2023-11-15T01:56:50.043Z,1.77
2023-11-15T01:57:22.173Z,1.33
2023-11-15T01:57:54.424Z,2.55
2023-11-15T01:58:29.203Z,1.13
2023-11-15T01:59:01.991Z,1.23
2023-11-15T01:59:33.991Z,1.98
2023-11-15T02:00:10.043Z,2.60
2023-11-15T02:00:41.851Z,1.85
2023-11-15T02:01:16.824Z,1.42
2023-11-15T02:01:52.114Z,1.23
2023-11-15T02:02:23.596Z,1.52
2023-11-15T02:02:56.227Z,1.30
2023-11-15T02:03:27.951Z,1.25
2023-11-15T02:03:59.788Z,1.17
2023-11-15T02:04:31.300Z,1.40
2023-11-15T02:05:02.768Z,1.40
2023-11-15T02:05:34.309Z,1.92
2023-11-15T02:06:57.082Z,1.50
2023-11-15T02:07:47.505Z,1.58
2023-11-15T02:08:19.028Z,2.45
2023-11-15T02:08:50.579Z,1.77
2023-11-15T02:09:22.625Z,1.48
2023-11-15T02:09:54.356Z,1.30
2023-11-15T02:10:26.064Z,2.22
2023-11-15T02:10:57.764Z,1.50
2023-11-15T02:11:29.418Z,1.50
2023-11-15T02:12:01.032Z,2.22
2023-11-15T02:12:32.953Z,1.63
2023-11-15T02:13:04.517Z,1.92
2023-11-15T02:13:35.980Z,2.03
2023-11-15T02:14:07.565Z,2.20
2023-11-15T02:14:39.102Z,2.00
2023-11-15T02:15:11.004Z,1.20
2023-11-15T02:16:53.052Z,1.83
2023-11-15T02:17:24.792Z,2.28
2023-11-15T02:17:56.473Z,2.05
2023-11-15T02:18:28.351Z,1.23
2023-11-15T02:18:59.932Z,1.60
2023-11-15T02:19:31.447Z,1.42
2023-11-15T02:20:06.326Z,1.67
2023-11-15T02:20:37.791Z,1.65
2023-11-15T02:21:10.742Z,1.43
2023-11-15T02:22:01.172Z,1.35
2023-11-15T02:22:33.839Z,1.27
2023-11-15T02:23:06.016Z,2.33
2023-11-15T02:23:46.947Z,1.10
2023-11-15T02:24:18.638Z,1.70
2023-11-15T02:24:50.544Z,1.00
2023-11-15T02:25:22.600Z,1.77
2023-11-15T02:25:54.075Z,1.92
2023-11-15T02:26:25.695Z,1.45
2023-11-15T02:26:57.284Z,1.37
2023-11-15T02:27:28.773Z,1.83
2023-11-15T02:28:01.597Z,1.40
2023-11-15T02:28:33.264Z,1.73
2023-11-15T02:29:05.173Z,1.90
2023-11-15T02:30:25.412Z,1.58
2023-11-15T02:30:56.935Z,1.50
2023-11-15T02:31:47.177Z,1.40
2023-11-15T02:32:18.629Z,1.55
2023-11-15T02:32:50.154Z,1.40
2023-11-15T02:33:21.766Z,1.65
2023-11-15T02:33:53.249Z,2.05
2023-11-15T02:34:24.713Z,1.85
2023-11-15T02:34:56.180Z,2.10
2023-11-15T02:35:28.296Z,1.80
2023-11-15T02:36:00.666Z,2.00
2023-11-15T02:36:32.189Z,1.90
2023-11-15T02:37:03.843Z,2.25
2023-11-15T02:37:54.049Z,1.40
2023-11-15T02:38:25.540Z,2.30
2023-11-15T02:38:57.132Z,1.27
2023-11-15T02:39:28.719Z,1.52
2023-11-15T02:40:02.359Z,1.75
2023-11-15T02:40:33.919Z,1.98
2023-11-15T02:41:05.569Z,1.77
2023-11-15T02:41:37.136Z,2.08
2023-11-15T02:42:08.619Z,1.70
2023-11-15T02:42:40.279Z,2.47
2023-11-15T02:43:11.728Z,1.95
2023-11-15T02:43:43.231Z,2.20
2023-11-15T02:44:14.783Z,1.60
2023-11-15T02:44:46.244Z,1.77
2023-11-15T02:45:17.707Z,2.55
2023-11-15T02:45:49.161Z,1.55
2023-11-15T02:46:23.850Z,2.45
2023-11-15T02:46:55.496Z,1.67
2023-11-15T02:47:27.449Z,2.33
2023-11-15T02:47:58.976Z,2.10
2023-11-15T02:48:30.732Z,2.03
2023-11-15T02:49:02.379Z,2.40
2023-11-15T02:49:33.916Z,2.30
2023-11-15T02:50:05.905Z,2.47
2023-11-15T02:50:37.436Z,2.88
2023-11-15T02:51:09.199Z,2.13
2023-11-15T02:51:40.776Z,2.33
2023-11-15T02:52:12.261Z,2.83
2023-11-15T02:52:43.761Z,2.72
2023-11-15T02:53:15.427Z,2.67
2023-11-15T02:53:47.706Z,2.17
2023-11-15T02:54:19.221Z,3.53
2023-11-15T02:54:51.204Z,3.38
2023-11-15T02:55:22.767Z,2.33
2023-11-15T02:55:54.251Z,2.80
2023-11-15T02:56:25.905Z,3.85
2023-11-15T02:56:57.436Z,3.00
2023-11-15T02:57:29.006Z,2.70
2023-11-15T02:58:02.052Z,2.95
2023-11-15T02:58:34.163Z,3.15
2023-11-15T02:59:05.648Z,2.70
2023-11-15T02:59:37.119Z,2.67
2023-11-15T03:00:09.861Z,2.50
2023-11-15T03:00:41.908Z,3.08
2023-11-15T03:01:14.157Z,2.15
2023-11-15T03:01:49.309Z,2.92
2023-11-15T03:02:21.096Z,2.78
2023-11-15T03:02:52.887Z,2.63
2023-11-15T03:03:24.608Z,2.40
2023-11-15T03:03:56.311Z,3.65
2023-11-15T03:04:46.611Z,3.17
2023-11-15T03:05:18.487Z,2.87
2023-11-15T03:05:50.042Z,2.30
2023-11-15T03:06:21.565Z,3.05
2023-11-15T03:06:53.053Z,3.03
2023-11-15T03:07:25.174Z,2.85
2023-11-15T03:07:56.958Z,2.83
2023-11-15T03:08:28.707Z,3.05
2023-11-15T03:09:00.285Z,3.90
2023-11-15T03:09:32.799Z,2.78
2023-11-15T03:10:23.189Z,3.72
2023-11-15T03:10:54.727Z,3.83
2023-11-15T03:11:26.240Z,3.22
2023-11-15T03:11:57.830Z,3.53
2023-11-15T03:12:32.052Z,3.60
2023-11-15T03:13:04.729Z,3.30
2023-11-15T03:13:36.297Z,3.80
2023-11-15T03:14:08.075Z,2.75
2023-11-15T03:14:39.620Z,5.20
2023-11-15T03:15:11.418Z,4.88
2023-11-15T03:15:43.058Z,3.20
2023-11-15T03:16:15.604Z,3.30
2023-11-15T03:16:47.188Z,3.50
2023-11-15T03:17:19.934Z,3.72
2023-11-15T03:17:51.674Z,4.20
2023-11-15T03:18:23.396Z,3.40
2023-11-15T03:18:55.009Z,4.00
2023-11-15T03:19:26.505Z,3.75
2023-11-15T03:19:58.063Z,4.68
2023-11-15T03:20:31.170Z,3.53
2023-11-15T03:21:03.636Z,3.80
2023-11-15T03:21:35.174Z,4.00
2023-11-15T03:22:06.719Z,3.33
2023-11-15T03:22:38.255Z,3.47
2023-11-15T03:23:10.957Z,4.72
2023-11-15T03:24:01.207Z,3.22
2023-11-15T03:24:32.708Z,3.38
2023-11-15T03:25:04.884Z,3.50
2023-11-15T03:25:37.987Z,3.63
2023-11-15T03:26:09.520Z,3.00
2023-11-15T03:26:41.060Z,3.78
2023-11-15T03:27:31.195Z,6.40
2023-11-15T03:28:02.733Z,4.03
2023-11-15T03:28:34.614Z,4.03
2023-11-15T03:29:06.331Z,3.58
2023-11-15T03:29:37.802Z,3.17
2023-11-15T03:30:09.703Z,3.33
2023-11-15T03:30:41.166Z,3.00
2023-11-15T03:31:13.779Z,3.83
2023-11-15T03:31:45.255Z,3.92
2023-11-15T03:32:16.787Z,3.30
2023-11-15T03:32:48.377Z,3.47
2023-11-15T03:33:20.115Z,3.75
2023-11-15T03:33:54.712Z,3.30
2023-11-15T03:34:26.189Z,3.53
2023-11-15T03:34:57.659Z,4.00
2023-11-15T03:35:29.191Z,2.83
2023-11-15T03:36:00.743Z,3.40
2023-11-15T03:36:33.791Z,4.03
2023-11-15T03:37:05.832Z,3.65
2023-11-15T03:37:37.379Z,3.42
2023-11-15T03:38:08.862Z,3.53
2023-11-15T03:38:58.737Z,4.30
2023-11-15T03:39:32.545Z,3.03
2023-11-15T03:40:05.318Z,2.80
2023-11-15T03:40:37.008Z,4.90
2023-11-15T03:41:08.592Z,3.35
2023-11-15T03:41:40.160Z,2.80
2023-11-15T03:42:13.432Z,3.95
2023-11-15T03:42:45.048Z,3.70
2023-11-15T03:43:16.525Z,3.38
2023-11-15T03:43:47.940Z,4.03
2023-11-15T03:44:19.694Z,3.40
2023-11-15T03:44:51.444Z,3.28
2023-11-15T03:45:22.989Z,3.30
2023-11-15T03:45:55.792Z,3.10
2023-11-15T03:46:27.842Z,2.83
2023-11-15T03:46:59.839Z,3.80
2023-11-15T03:47:32.968Z,3.20
2023-11-15T03:48:04.859Z,3.97
2023-11-15T03:48:36.861Z,3.90
2023-11-15T03:49:08.370Z,3.53
2023-11-15T03:49:40.076Z,3.85
2023-11-15T03:50:12.818Z,3.90
2023-11-15T03:50:44.398Z,3.53
2023-11-15T03:51:15.841Z,2.92
2023-11-15T03:51:47.288Z,3.13
2023-11-15T03:52:18.964Z,2.88
2023-11-15T03:52:50.416Z,3.72
2023-11-15T03:53:22.874Z,3.88
2023-11-15T03:53:54.414Z,3.47
2023-11-15T03:54:25.954Z,3.63
2023-11-15T03:54:58.058Z,2.92
2023-11-15T03:55:31.534Z,2.45
2023-11-15T03:56:04.076Z,3.03
2023-11-15T03:56:35.601Z,3.17
2023-11-15T03:57:09.337Z,2.65
2023-11-15T03:57:41.896Z,2.88
2023-11-15T03:58:13.700Z,3.38
2023-11-15T03:58:45.175Z,3.08
2023-11-15T03:59:16.922Z,3.00
2023-11-15T03:59:48.512Z,2.50
2023-11-15T04:00:20.150Z,2.80
2023-11-15T04:00:51.661Z,3.22
2023-11-15T04:01:23.176Z,2.45
2023-11-15T04:01:57.547Z,3.00
2023-11-15T04:02:29.695Z,2.50
2023-11-15T04:03:01.536Z,2.78
2023-11-15T04:03:34.017Z,3.28
2023-11-15T04:04:05.763Z,3.85
2023-11-15T04:04:40.244Z,3.40
2023-11-15T04:05:12.924Z,2.90
2023-11-15T04:05:45.469Z,3.42
2023-11-15T04:06:17.796Z,2.55
2023-11-15T04:06:49.225Z,3.38
2023-11-15T04:07:20.688Z,3.40
2023-11-15T04:08:10.517Z,3.28
2023-11-15T04:08:42.270Z,3.10
2023-11-15T04:09:14.651Z,3.55
2023-11-15T04:09:46.185Z,3.47
2023-11-15T04:10:17.748Z,3.20
2023-11-15T04:10:49.782Z,2.97
2023-11-15T04:11:21.293Z,2.90
2023-11-15T04:11:53.377Z,2.85
2023-11-15T04:12:24.939Z,2.55
2023-11-15T04:12:56.394Z,3.40
2023-11-15T04:13:46.539Z,3.15
2023-11-15T04:15:10.136Z,2.55
2023-11-15T04:16:30.676Z,2.90
2023-11-15T04:17:02.105Z,3.37
2023-11-15T04:17:33.634Z,3.17
2023-11-15T04:18:05.447Z,2.58
2023-11-15T04:18:39.358Z,2.25
2023-11-15T04:19:11.385Z,3.22
2023-11-15T04:19:42.893Z,2.50
2023-11-15T04:20:14.475Z,2.95
2023-11-15T04:20:46.021Z,3.08
2023-11-15T04:21:17.585Z,3.92
2023-11-15T04:22:12.313Z,2.70
2023-11-15T04:22:45.678Z,4.00
2023-11-15T04:23:17.201Z,2.58
2023-11-15T04:23:48.774Z,3.13
2023-11-15T04:24:20.273Z,3.30
2023-11-15T04:24:53.802Z,5.07
2023-11-15T04:25:26.059Z,2.30
2023-11-15T04:25:59.384Z,3.35
2023-11-15T04:26:31.047Z,2.92
2023-11-15T04:27:03.748Z,2.20
2023-11-15T04:27:54.064Z,3.72
2023-11-15T04:28:25.563Z,3.13
2023-11-15T04:28:57.107Z,2.92
2023-11-15T04:29:28.619Z,2.50
2023-11-15T04:30:00.280Z,3.53
2023-11-15T04:30:32.259Z,3.22
2023-11-15T04:31:04.041Z,3.22
2023-11-15T04:31:36.623Z,2.78
2023-11-15T04:32:08.216Z,2.50
2023-11-15T04:32:40.678Z,3.00
2023-11-15T04:33:13.636Z,2.97
2023-11-15T04:33:47.082Z,2.90
2023-11-15T04:34:18.592Z,3.10
2023-11-15T04:34:50.114Z,2.70
2023-11-15T04:35:21.621Z,3.50
2023-11-15T04:35:53.133Z,3.58
2023-11-15T04:36:24.564Z,3.25
2023-11-15T04:36:56.087Z,2.95
2023-11-15T04:37:27.518Z,2.92
2023-11-15T04:37:58.996Z,2.67
2023-11-15T04:38:30.618Z,2.28
2023-11-15T04:39:08.403Z,2.80
2023-11-15T04:39:41.864Z,2.17
2023-11-15T04:40:13.397Z,3.95
2023-11-15T04:40:44.885Z,3.25
2023-11-15T04:41:16.420Z,2.72
2023-11-15T04:41:49.601Z,3.80
2023-11-15T04:42:21.431Z,3.05
2023-11-15T04:42:52.935Z,3.63
2023-11-15T04:43:27.226Z,2.78
2023-11-15T04:43:58.824Z,2.38
2023-11-15T04:44:31.816Z,3.07
2023-11-15T04:45:04.544Z,3.08
2023-11-15T04:45:36.004Z,3.70
2023-11-15T04:46:07.731Z,3.67
2023-11-15T04:46:39.334Z,3.03
2023-11-15T04:47:11.412Z,2.75
2023-11-15T04:47:43.434Z,2.97
2023-11-15T04:48:15.051Z,3.33
2023-11-15T04:48:46.550Z,3.10
2023-11-15T04:49:19.317Z,2.40
2023-11-15T04:49:50.935Z,2.40
2023-11-15T04:50:23.496Z,2.72
2023-11-15T04:50:57.366Z,2.17
2023-11-15T04:51:28.982Z,4.13
2023-11-15T04:52:00.500Z,3.47
2023-11-15T04:52:31.985Z,1.98
2023-11-15T04:53:08.202Z,3.03
2023-11-15T04:53:40.004Z,2.67
2023-11-15T04:54:11.724Z,3.13
2023-11-15T04:54:43.265Z,2.60
2023-11-15T04:55:14.729Z,3.47
2023-11-15T04:55:46.158Z,3.63
2023-11-15T04:56:17.650Z,2.13
2023-11-15T04:56:49.257Z,3.53
2023-11-15T04:57:24.560Z,3.38
2023-11-15T04:57:56.024Z,2.35
2023-11-15T04:58:27.450Z,3.20
2023-11-15T04:58:59.001Z,2.67
2023-11-15T04:59:31.803Z,2.50
2023-11-15T05:00:05.748Z,2.35
2023-11-15T05:00:37.292Z,2.83
2023-11-15T05:01:08.740Z,2.70
2023-11-15T05:01:42.951Z,3.45
2023-11-15T05:02:15.163Z,3.30
2023-11-15T05:02:46.767Z,2.95
2023-11-15T05:03:37.606Z,2.63
2023-11-15T05:04:09.385Z,3.88
2023-11-15T05:04:41.114Z,3.90
2023-11-15T05:05:12.792Z,2.20
2023-11-15T05:05:46.594Z,3.47
2023-11-15T05:06:18.381Z,2.03
2023-11-15T05:06:51.094Z,3.17
2023-11-15T05:07:26.277Z,2.45
2023-11-15T05:07:58.736Z,2.45
2023-11-15T05:08:30.229Z,4.32
2023-11-15T05:09:21.125Z,2.42
2023-11-15T05:09:52.600Z,2.78
2023-11-15T05:10:26.052Z,4.03
2023-11-15T05:10:57.491Z,3.03
2023-11-15T05:11:29.009Z,2.80
2023-11-15T05:12:01.274Z,2.37
2023-11-15T05:12:32.847Z,2.88
2023-11-15T05:13:05.461Z,3.55
2023-11-15T05:13:36.980Z,2.45
2023-11-15T05:14:08.482Z,3.28
2023-11-15T05:14:40.090Z,2.55
2023-11-15T05:15:11.634Z,2.78
2023-11-15T05:15:43.072Z,3.83
2023-11-15T05:16:14.675Z,3.35
2023-11-15T05:16:46.160Z,2.88
2023-11-15T05:17:17.695Z,2.13
2023-11-15T05:17:49.225Z,2.85
2023-11-15T05:18:21.146Z,3.08
2023-11-15T05:18:52.710Z,3.28
2023-11-15T05:19:24.646Z,2.65
2023-11-15T05:19:56.127Z,2.47
2023-11-15T05:20:28.259Z,3.90
2023-11-15T05:21:00.510Z,2.33
2023-11-15T05:21:32.525Z,3.67
2023-11-15T05:22:06.880Z,2.78
2023-11-15T05:22:56.902Z,2.80
2023-11-15T05:23:28.394Z,2.47
2023-11-15T05:24:00.602Z,3.35
2023-11-15T05:24:32.497Z,2.72
2023-11-15T05:25:07.157Z,3.40
2023-11-15T05:25:38.797Z,2.60
2023-11-15T05:26:10.492Z,2.45
2023-11-15T05:26:42.011Z,2.95
2023-11-15T05:27:13.556Z,4.28
2023-11-15T05:27:46.208Z,3.13
2023-11-15T05:28:19.627Z,2.10
2023-11-15T05:28:51.149Z,3.58
2023-11-15T05:29:23.420Z,3.45
2023-11-15T05:29:54.893Z,3.00
2023-11-15T05:30:45.082Z,3.20
2023-11-15T05:31:17.238Z,2.10
2023-11-15T05:31:49.333Z,3.05
2023-11-15T05:32:20.813Z,2.40
2023-11-15T05:32:52.420Z,3.10
2023-11-15T05:33:24.022Z,2.25
2023-11-15T05:33:56.031Z,3.83
2023-11-15T05:34:28.748Z,2.47
2023-11-15T05:35:00.330Z,2.35
2023-11-15T05:35:31.806Z,2.60
2023-11-15T05:36:03.559Z,3.00
2023-11-15T05:36:35.025Z,2.67
2023-11-15T05:37:06.519Z,2.28
2023-11-15T05:37:39.304Z,3.08
2023-11-15T05:38:11.114Z,3.95
2023-11-15T05:39:01.148Z,2.17
2023-11-15T05:39:32.646Z,4.07
2023-11-15T05:40:04.580Z,2.03
2023-11-15T05:40:36.115Z,3.35
2023-11-15T05:41:07.600Z,3.53
2023-11-15T05:41:39.154Z,2.55
2023-11-15T05:42:10.730Z,2.90
2023-11-15T05:42:45.837Z,3.05
2023-11-15T05:43:17.321Z,2.60
2023-11-15T05:43:48.737Z,3.25
2023-11-15T05:44:20.371Z,3.30
2023-11-15T05:44:52.640Z,2.33
2023-11-15T05:45:26.671Z,3.20
2023-11-15T05:45:58.467Z,2.95
2023-11-15T05:46:30.005Z,2.60
2023-11-15T05:47:02.781Z,2.40
2023-11-15T05:47:52.546Z,2.85
2023-11-15T05:48:24.220Z,2.63
2023-11-15T05:48:55.738Z,2.38
2023-11-15T05:49:27.314Z,3.92
2023-11-15T05:49:58.878Z,2.38
2023-11-15T05:50:30.486Z,2.87
2023-11-15T05:51:04.566Z,4.03
2023-11-15T05:51:36.067Z,4.88
2023-11-15T05:52:07.831Z,3.55
2023-11-15T05:52:39.339Z,3.97
2023-11-15T05:53:11.638Z,2.80
2023-11-15T05:54:06.239Z,2.95
2023-11-15T05:54:38.215Z,2.47
2023-11-15T05:55:12.292Z,3.40
2023-11-15T05:56:02.324Z,3.10
2023-11-15T05:56:33.902Z,2.00
2023-11-15T05:57:05.911Z,4.25
2023-11-15T05:57:37.416Z,2.25
2023-11-15T05:58:10.586Z,3.55
2023-11-15T05:58:42.475Z,2.80
2023-11-15T05:59:14.946Z,2.97
2023-11-15T05:59:46.426Z,3.15
2023-11-15T06:00:21.607Z,2.95
2023-11-15T06:00:53.096Z,3.17
2023-11-15T06:01:25.294Z,3.53
2023-11-15T06:01:56.813Z,3.20
2023-11-15T06:02:28.450Z,2.30
2023-11-15T06:03:01.233Z,3.58
2023-11-15T06:03:32.942Z,2.83
2023-11-15T06:04:04.624Z,3.33
2023-11-15T06:04:36.280Z,3.05
2023-11-15T06:05:08.570Z,3.20
2023-11-15T06:05:40.025Z,2.55
2023-11-15T06:06:11.561Z,2.97
2023-11-15T06:06:43.034Z,2.50
2023-11-15T06:07:14.749Z,3.77
2023-11-15T06:07:46.841Z,3.30
2023-11-15T06:08:18.962Z,2.63
2023-11-15T06:08:50.835Z,2.78
2023-11-15T06:09:22.459Z,2.22
2023-11-15T06:09:54.128Z,2.42
2023-11-15T06:10:27.888Z,2.10
2023-11-15T06:10:59.823Z,2.90
2023-11-15T06:11:32.125Z,2.97
2023-11-15T06:12:03.947Z,2.88
2023-11-15T06:12:36.599Z,3.03
2023-11-15T06:13:08.155Z,2.95
2023-11-15T06:13:39.764Z,2.63
2023-11-15T06:14:15.608Z,2.58
2023-11-15T06:14:48.338Z,3.85
2023-11-15T06:15:20.080Z,2.20
2023-11-15T06:15:51.629Z,3.38
2023-11-15T06:16:23.894Z,2.55
2023-11-15T06:16:55.499Z,3.67
2023-11-15T06:17:29.894Z,2.28
2023-11-15T06:18:01.533Z,3.03
2023-11-15T06:19:25.066Z,2.47
2023-11-15T06:20:04.366Z,3.03
2023-11-15T06:20:41.848Z,2.30
2023-11-15T06:21:31.986Z,2.30
2023-11-15T06:22:04.214Z,2.45
2023-11-15T06:22:35.684Z,2.78
2023-11-15T06:23:07.132Z,2.45
2023-11-15T06:23:39.081Z,3.15
2023-11-15T06:24:10.875Z,2.70
2023-11-15T06:24:43.774Z,2.67
2023-11-15T06:25:20.043Z,3.30
2023-11-15T06:25:51.843Z,3.35
2023-11-15T06:26:23.329Z,2.10
2023-11-15T06:26:54.823Z,2.63
2023-11-15T06:27:26.398Z,2.40
2023-11-15T06:27:57.915Z,3.40
2023-11-15T06:28:50.290Z,3.50
2023-11-15T06:29:23.130Z,2.65
2023-11-15T06:29:56.845Z,4.23
2023-11-15T06:30:28.594Z,3.13
2023-11-15T06:31:00.325Z,2.85
2023-11-15T06:31:51.655Z,3.00
2023-11-15T06:32:25.143Z,2.83
2023-11-15T06:32:56.788Z,2.53
2023-11-15T06:33:28.473Z,2.63
2023-11-15T06:34:00.079Z,3.00
2023-11-15T06:34:32.024Z,3.35
2023-11-15T06:35:04.152Z,2.72
2023-11-15T06:35:36.932Z,3.73
2023-11-15T06:36:09.546Z,4.25
2023-11-15T06:36:45.496Z,3.13
2023-11-15T06:37:17.459Z,3.75
2023-11-15T06:37:50.087Z,3.78
2023-11-15T06:38:21.654Z,3.10
2023-11-15T06:38:53.137Z,2.88
2023-11-15T06:39:43.387Z,3.38
2023-11-15T06:40:19.475Z,4.15
2023-11-15T06:40:50.927Z,2.50
2023-11-15T06:41:22.429Z,3.70
2023-11-15T06:41:53.874Z,3.67
2023-11-15T06:42:25.305Z,2.40
2023-11-15T06:42:57.965Z,2.35
2023-11-15T06:43:29.921Z,3.28
2023-11-15T06:44:01.584Z,3.00
2023-11-15T06:44:33.190Z,2.97
2023-11-15T06:45:05.648Z,3.10
2023-11-15T06:45:57.019Z,3.15
2023-11-15T06:46:28.720Z,2.25
2023-11-15T06:47:02.284Z,3.70
2023-11-15T06:47:34.346Z,2.67
2023-11-15T06:48:08.043Z,2.78
2023-11-15T06:48:40.974Z,2.78
2023-11-15T06:49:12.957Z,3.65
2023-11-15T06:49:44.610Z,2.83
2023-11-15T06:50:16.669Z,3.58
2023-11-15T06:50:48.163Z,3.03
2023-11-15T06:51:19.982Z,3.38
2023-11-15T06:51:52.380Z,3.63
2023-11-15T06:52:42.186Z,4.03
2023-11-15T06:53:14.373Z,2.53
2023-11-15T06:54:05.128Z,2.55
2023-11-15T06:54:37.968Z,3.90
2023-11-15T06:55:12.749Z,3.70
2023-11-15T06:55:45.522Z,2.05
2023-11-15T06:56:18.057Z,2.70
2023-11-15T06:56:50.067Z,2.50
2023-11-15T06:57:21.622Z,3.38
2023-11-15T06:57:53.205Z,2.83
2023-11-15T06:58:26.953Z,2.60
2023-11-15T06:58:58.468Z,3.05
2023-11-15T06:59:30.351Z,2.80
2023-11-15T07:00:01.905Z,3.63
2023-11-15T07:00:34.331Z,2.60
2023-11-15T07:01:08.317Z,2.47
2023-11-15T07:01:39.981Z,3.55
2023-11-15T07:02:12.839Z,3.53
2023-11-15T07:02:44.441Z,3.55
2023-11-15T07:03:16.220Z,3.42
2023-11-15T07:03:49.150Z,2.53
2023-11-15T07:04:39.362Z,3.25
2023-11-15T07:05:11.686Z,3.05
2023-11-15T07:05:44.075Z,2.83
2023-11-15T07:06:16.213Z,3.70
2023-11-15T07:06:49.002Z,2.60
2023-11-15T07:07:20.746Z,2.33
2023-11-15T07:07:52.216Z,3.22
2023-11-15T07:08:23.686Z,2.67
2023-11-15T07:08:56.733Z,2.25
2023-11-15T07:09:28.401Z,2.77
2023-11-15T07:10:00.309Z,2.65
2023-11-15T07:10:31.720Z,3.30
2023-11-15T07:11:03.555Z,3.30
2023-11-15T07:11:35.083Z,3.03
2023-11-15T07:12:25.402Z,3.05
2023-11-15T07:12:58.096Z,3.22
2023-11-15T07:13:47.869Z,3.15
2023-11-15T07:14:19.356Z,3.85
2023-11-15T07:14:52.331Z,2.35
2023-11-15T07:15:24.389Z,3.10
2023-11-15T07:15:55.980Z,3.08
2023-11-15T07:16:27.594Z,2.47
2023-11-15T07:16:59.635Z,2.80
2023-11-15T07:17:33.180Z,2.08
2023-11-15T07:18:05.209Z,3.45
2023-11-15T07:18:36.867Z,2.53
2023-11-15T07:19:08.443Z,3.15
2023-11-15T07:19:39.964Z,2.28
2023-11-15T07:20:11.732Z,2.58
2023-11-15T07:21:02.107Z,3.13
2023-11-15T07:21:34.031Z,3.50
2023-11-15T07:22:05.577Z,2.35
2023-11-15T07:22:40.025Z,3.13
2023-11-15T07:23:30.128Z,2.92
2023-11-15T07:24:01.652Z,1.88
2023-11-15T07:24:42.149Z,2.85
2023-11-15T07:25:14.543Z,1.95
2023-11-15T07:25:46.099Z,2.40
2023-11-15T07:26:17.543Z,2.47
2023-11-15T07:26:49.108Z,2.27
2023-11-15T07:27:20.887Z,2.97